createdAt,value
2022-11-20T00:04:49.505Z,12.85
2022-11-20T00:09:55.077Z,12.30
2022-11-20T00:15:03.057Z,13.27
2022-11-20T00:20:10.746Z,17.00
2022-11-20T00:25:16.546Z,14.23
2022-11-20T00:30:24.937Z,15.68
2022-11-20T00:35:30.355Z,14.15
2022-11-20T00:40:36.129Z,16.73
2022-11-20T00:45:44.347Z,14.02
2022-11-20T00:50:50.110Z,16.83
2022-11-20T00:55:59.882Z,19.35
2022-11-20T01:01:10.941Z,17.00
2022-11-20T01:06:18.793Z,22.63
2022-11-20T01:11:27.916Z,18.70
2022-11-20T01:16:37.889Z,17.67
2022-11-20T01:21:45.587Z,20.45
2022-11-20T01:26:52.966Z,20.38
2022-11-20T01:32:01.714Z,15.83
2022-11-20T01:37:07.914Z,17.60
2022-11-20T01:42:26.322Z,16.03
2022-11-20T01:47:39.132Z,18.08
2022-11-20T01:52:48.591Z,18.60
2022-11-20T01:57:55.442Z,19.17
2022-11-20T02:03:07.615Z,20.52
2022-11-20T02:08:13.561Z,20.33
2022-11-20T02:13:32.159Z,22.05
2022-11-20T02:18:42.237Z,20.92
2022-11-20T02:24:04.155Z,22.70
2022-11-20T02:29:09.757Z,22.23
2022-11-20T02:34:15.779Z,24.47
2022-11-20T02:39:26.262Z,17.63
2022-11-20T02:44:32.058Z,18.27
2022-11-20T02:49:37.821Z,21.40
2022-11-20T02:54:46.446Z,20.38
2022-11-20T02:59:52.032Z,22.07
2022-11-20T03:04:57.624Z,19.10
2022-11-20T03:10:06.520Z,19.73
2022-11-20T03:15:14.612Z,19.00
2022-11-20T03:20:21.011Z,19.60
2022-11-20T03:25:30.157Z,22.03
2022-11-20T03:30:35.672Z,21.38
2022-11-20T03:35:41.273Z,19.10
2022-11-20T03:40:50.062Z,23.60
2022-11-20T03:45:55.662Z,20.75
2022-11-20T03:51:11.759Z,16.83
2022-11-20T03:56:23.544Z,20.17
2022-11-20T04:01:31.876Z,16.17
2022-11-20T04:06:43.010Z,18.77
2022-11-20T04:11:51.710Z,18.27
2022-11-20T04:17:00.278Z,17.87
2022-11-20T04:22:05.963Z,17.08
2022-11-20T04:27:14.146Z,21.58
2022-11-20T04:32:19.798Z,19.93
2022-11-20T04:37:26.667Z,18.55
2022-11-20T04:42:34.983Z,19.30
2022-11-20T04:47:40.761Z,16.52
2022-11-20T04:52:46.178Z,16.92
2022-11-20T04:57:57.096Z,14.63
2022-11-20T05:03:02.793Z,17.55
2022-11-20T05:08:08.380Z,17.50
2022-11-20T05:13:16.503Z,17.02
2022-11-20T05:18:23.267Z,20.65
2022-11-20T05:23:29.329Z,17.43
2022-11-20T05:28:39.989Z,18.10
2022-11-20T05:33:47.043Z,16.40
2022-11-20T05:38:56.668Z,18.83
2022-11-20T05:44:08.704Z,21.10
2022-11-20T05:49:14.705Z,19.77
2022-11-20T05:54:20.435Z,21.10
2022-11-20T05:59:28.641Z,17.97
2022-11-20T06:04:34.177Z,17.20
2022-11-20T06:09:39.573Z,20.55
2022-11-20T06:14:48.527Z,20.60
2022-11-20T06:19:54.534Z,19.77
2022-11-20T06:25:00.061Z,16.83
2022-11-20T06:30:09.765Z,20.13
2022-11-20T06:35:15.338Z,20.05
2022-11-20T06:40:21.055Z,16.80
2022-11-20T06:45:29.784Z,16.83
2022-11-20T06:50:35.370Z,18.23
2022-11-20T06:55:40.880Z,18.02
2022-11-20T07:00:49.240Z,18.33
2022-11-20T07:05:55.090Z,17.93
2022-11-20T07:11:02.531Z,18.85
2022-11-20T07:16:12.340Z,19.70
2022-11-20T07:21:18.304Z,15.52
2022-11-20T07:26:24.199Z,19.23
2022-11-20T07:31:32.284Z,17.37
2022-11-20T07:36:38.060Z,18.50
2022-11-20T07:41:43.622Z,15.03
2022-11-20T07:46:51.928Z,16.67
2022-11-20T07:52:03.148Z,14.73
2022-11-20T07:57:10.202Z,19.07
2022-11-20T08:02:18.686Z,15.90
2022-11-20T08:07:24.290Z,19.13
2022-11-20T08:12:42.466Z,16.83
2022-11-20T08:18:15.333Z,20.65
2022-11-20T08:23:16.738Z,18.30
2022-11-20T08:28:22.870Z,18.08
2022-11-20T08:33:33.678Z,17.07
2022-11-20T08:38:39.214Z,20.20
2022-11-20T08:43:45.064Z,16.65
2022-11-20T08:48:53.395Z,17.60
2022-11-20T08:53:59.314Z,18.33
2022-11-20T09:04:33.103Z,16.27
2022-11-20T09:09:38.970Z,18.67
2022-11-20T09:14:44.591Z,16.37
2022-11-20T09:19:52.749Z,16.15
2022-11-20T09:24:58.356Z,15.00
2022-11-20T09:30:03.711Z,17.27
2022-11-20T09:35:13.000Z,19.05
2022-11-20T09:40:24.313Z,20.17
2022-11-20T09:45:42.971Z,19.63
2022-11-20T09:50:57.682Z,18.63
2022-11-20T09:56:06.512Z,20.13
2022-11-20T10:01:16.189Z,17.58
2022-11-20T10:06:32.024Z,20.77
2022-11-20T10:11:50.131Z,19.92
2022-11-20T10:17:04.443Z,17.50
2022-11-20T10:22:19.795Z,16.73
2022-11-20T10:27:54.369Z,18.25
2022-11-20T10:33:07.974Z,15.63
2022-11-20T10:38:27.471Z,17.80
2022-11-20T10:43:37.155Z,21.43
2022-11-20T10:48:44.172Z,17.35
2022-11-20T10:54:04.994Z,19.67
2022-11-20T10:59:39.149Z,18.77
2022-11-20T11:04:47.713Z,20.88
2022-11-20T11:09:58.440Z,20.47
2022-11-20T11:15:03.819Z,25.30
2022-11-20T11:20:19.908Z,20.17
2022-11-20T11:25:37.263Z,18.97
2022-11-20T11:30:49.593Z,19.17
2022-11-20T11:35:58.384Z,19.17
2022-11-20T11:41:08.159Z,19.45
2022-11-20T11:46:31.279Z,21.58
2022-11-20T11:51:44.410Z,20.73
2022-11-20T11:56:53.201Z,23.17
2022-11-20T12:02:04.029Z,15.97
2022-11-20T12:07:44.799Z,23.92
2022-11-20T12:12:48.533Z,24.48
2022-11-20T12:17:53.934Z,25.57
2022-11-20T12:23:09.157Z,20.80
2022-11-20T12:28:39.068Z,24.63
2022-11-20T12:34:07.168Z,20.00
2022-11-20T12:39:36.663Z,21.55
2022-11-20T12:45:14.336Z,21.00
2022-11-20T12:50:30.649Z,21.55
2022-11-20T12:55:51.082Z,22.00
2022-11-20T13:01:08.229Z,23.98
2022-11-20T13:06:19.184Z,26.05
2022-11-20T13:11:31.325Z,25.33
2022-11-20T13:16:44.044Z,23.83
2022-11-20T13:21:51.536Z,25.23
2022-11-20T13:27:24.198Z,24.27
2022-11-20T13:32:34.142Z,26.40
2022-11-20T13:37:41.326Z,30.60
2022-11-20T13:42:50.174Z,24.27
2022-11-20T13:48:00.305Z,24.43
2022-11-20T13:53:21.062Z,29.13
2022-11-20T13:58:38.258Z,25.90
2022-11-20T14:09:15.305Z,31.35
2022-11-20T14:14:23.522Z,28.17
2022-11-20T14:19:34.992Z,27.08
2022-11-20T14:24:40.751Z,27.35
2022-11-20T14:29:48.460Z,25.60
2022-11-20T14:34:56.667Z,30.73
2022-11-20T14:40:02.648Z,26.70
2022-11-20T14:45:09.369Z,28.48
2022-11-20T14:50:22.965Z,23.67
2022-11-20T14:55:33.829Z,26.83
2022-11-20T15:00:39.334Z,29.20
2022-11-20T15:05:52.365Z,26.83
2022-11-20T15:10:58.564Z,25.17
2022-11-20T15:16:05.640Z,27.08
2022-11-20T15:21:17.175Z,27.60
2022-11-20T15:26:27.380Z,26.40
2022-11-20T15:31:32.751Z,30.93
2022-11-20T15:36:41.938Z,28.45
2022-11-20T15:41:47.436Z,27.70
2022-11-20T15:46:52.906Z,28.27
2022-11-20T15:52:00.919Z,24.08
2022-11-20T15:57:06.955Z,24.30
2022-11-20T16:02:18.860Z,27.45
2022-11-20T16:07:29.176Z,27.52
2022-11-20T16:12:47.164Z,23.92
2022-11-20T16:17:53.572Z,21.52
2022-11-20T16:23:02.858Z,25.80
2022-11-20T16:28:15.970Z,24.02
2022-11-20T16:33:24.478Z,25.55
2022-11-20T16:38:32.787Z,31.15
2022-11-20T16:43:38.312Z,22.35
2022-11-20T16:48:43.952Z,25.07
2022-11-20T16:53:53.575Z,25.75
2022-11-20T16:59:02.690Z,23.70
2022-11-20T17:04:09.648Z,19.50
2022-11-20T17:09:18.306Z,25.63
2022-11-20T17:14:23.918Z,25.10
2022-11-20T17:19:29.489Z,25.05
2022-11-20T17:24:39.246Z,33.03
2022-11-20T17:29:44.738Z,19.50
2022-11-20T17:34:50.114Z,23.98
2022-11-20T17:39:58.419Z,19.90
2022-11-20T17:45:03.858Z,20.48
2022-11-20T17:50:12.166Z,19.30
2022-11-20T17:55:20.226Z,16.80
2022-11-20T18:00:27.105Z,17.25
2022-11-20T18:05:32.470Z,15.77
2022-11-20T18:10:40.574Z,12.02
2022-11-20T18:15:46.687Z,15.50
2022-11-20T18:20:56.347Z,15.80
2022-11-20T18:26:05.630Z,13.43
2022-11-20T18:31:11.871Z,13.67
2022-11-20T18:36:19.652Z,15.75
2022-11-20T18:41:41.897Z,13.55
2022-11-20T18:46:47.558Z,14.17
2022-11-20T18:51:53.400Z,15.73
2022-11-20T18:57:01.832Z,14.37
2022-11-20T19:02:07.920Z,12.82
2022-11-20T19:07:14.496Z,13.40
2022-11-20T19:12:23.370Z,9.87
2022-11-20T19:17:29.638Z,8.95
2022-11-20T19:22:35.246Z,8.97
2022-11-20T19:27:43.233Z,10.38
2022-11-20T19:32:49.022Z,8.77
2022-11-20T19:37:54.712Z,8.57
2022-11-20T19:43:04.065Z,9.50
2022-11-20T19:48:10.132Z,10.30
2022-11-20T19:53:15.657Z,7.53
2022-11-20T19:58:24.423Z,9.32
2022-11-20T20:03:29.854Z,10.47
2022-11-20T20:08:36.218Z,19.45
2022-11-20T20:13:45.627Z,14.20
2022-11-20T20:18:51.393Z,10.20
2022-11-20T20:23:58.325Z,13.30
2022-11-20T20:29:07.093Z,14.57
2022-11-20T20:34:12.584Z,12.75
2022-11-20T20:39:18.053Z,20.33
2022-11-20T20:44:38.897Z,14.52
2022-11-20T20:49:45.367Z,8.68
2022-11-20T20:54:50.849Z,12.70
2022-11-20T20:59:58.967Z,15.70
2022-11-20T21:05:04.847Z,16.80
2022-11-20T21:10:10.609Z,14.80
2022-11-20T21:15:18.758Z,11.40
2022-11-20T21:20:36.527Z,16.40
2022-11-20T21:25:43.530Z,10.90
2022-11-20T21:30:52.225Z,12.20
2022-11-20T21:36:02.718Z,16.08
2022-11-20T21:41:11.077Z,10.63
2022-11-20T21:46:20.281Z,13.17
2022-11-20T21:51:27.262Z,15.77
2022-11-20T21:56:32.691Z,15.83
2022-11-20T22:01:41.726Z,17.75
2022-11-20T22:06:47.203Z,14.07
2022-11-20T22:11:52.540Z,15.47
2022-11-20T22:17:00.995Z,17.38
2022-11-20T22:22:06.415Z,9.80
2022-11-20T22:27:13.362Z,11.52
2022-11-20T22:32:21.360Z,13.50
2022-11-20T22:37:26.679Z,11.00
2022-11-20T22:42:32.022Z,13.13
2022-11-20T22:47:40.056Z,9.23
2022-11-20T22:52:45.419Z,10.55
2022-11-20T22:57:50.690Z,8.77
2022-11-20T23:02:58.629Z,7.17
2022-11-20T23:08:04.131Z,6.75
2022-11-20T23:13:10.604Z,14.73
2022-11-20T23:18:19.409Z,27.13
2022-11-20T23:23:25.248Z,27.70
2022-11-20T23:28:30.732Z,30.40
2022-11-20T23:33:42.634Z,27.38
2022-11-20T23:38:48.034Z,25.87
2022-11-20T23:43:53.604Z,27.55
2022-11-20T23:49:01.641Z,22.85
2022-11-20T23:54:07.189Z,21.23
2022-11-20T23:59:13.046Z,20.45
